createdAt,value
2023-03-18T00:01:35.664Z,12.70
2023-03-18T00:04:07.907Z,12.30
2023-03-18T00:06:36.562Z,11.60
2023-03-18T00:09:12.585Z,13.40
2023-03-18T00:11:42.174Z,13.00
2023-03-18T00:14:11.380Z,14.60
2023-03-18T00:16:42.773Z,15.60
2023-03-18T00:19:11.593Z,16.70
2023-03-18T00:21:39.836Z,15.50
2023-03-18T00:24:09.825Z,17.70
2023-03-18T00:26:38.728Z,14.90
2023-03-18T00:29:07.877Z,16.70
2023-03-18T00:31:38.484Z,16.70
2023-03-18T00:34:06.658Z,15.00
2023-03-18T00:36:34.898Z,13.60
2023-03-18T00:39:07.562Z,15.00
2023-03-18T00:41:38.147Z,17.00
2023-03-18T00:44:07.671Z,18.40
2023-03-18T00:46:37.670Z,23.20
2023-03-18T00:49:07.518Z,27.80
2023-03-18T00:51:37.544Z,26.20
2023-03-18T00:54:12.507Z,31.30
2023-03-18T00:56:41.600Z,26.20
2023-03-18T00:59:10.549Z,53.10
2023-03-18T01:01:41.876Z,47.50
2023-03-18T01:04:10.855Z,43.50
2023-03-18T01:06:45.479Z,38.90
2023-03-18T01:09:14.563Z,37.60
2023-03-18T01:11:42.872Z,26.90
2023-03-18T01:14:11.122Z,27.90
2023-03-18T01:16:45.070Z,26.60
2023-03-18T01:19:14.198Z,23.50
2023-03-18T01:21:42.310Z,20.40
2023-03-18T01:24:11.564Z,18.90
2023-03-18T01:26:39.793Z,19.20
2023-03-18T01:29:08.166Z,18.40
2023-03-18T01:31:37.995Z,18.80
2023-03-18T01:34:10.507Z,20.70
2023-03-18T01:36:45.060Z,21.60
2023-03-18T01:39:14.586Z,18.50
2023-03-18T01:41:44.795Z,17.70
2023-03-18T01:44:19.339Z,16.70
2023-03-18T01:46:50.123Z,14.40
2023-03-18T01:49:25.262Z,12.30
2023-03-18T01:52:23.016Z,14.10
2023-03-18T01:54:55.860Z,14.70
2023-03-18T01:57:25.088Z,12.00
2023-03-18T01:59:53.915Z,14.20
2023-03-18T02:02:22.029Z,13.50
2023-03-18T02:04:53.810Z,12.50
2023-03-18T02:07:25.355Z,12.80
2023-03-18T02:09:54.223Z,12.80
2023-03-18T02:12:25.975Z,14.20
2023-03-18T02:14:57.054Z,14.90
2023-03-18T02:17:30.362Z,21.60
2023-03-18T02:20:49.511Z,14.20
2023-03-18T02:23:43.045Z,34.60
2023-03-18T02:26:14.324Z,37.50
2023-03-18T02:28:42.402Z,43.30
2023-03-18T02:31:12.297Z,45.50
2023-03-18T02:33:42.057Z,40.70
2023-03-18T02:36:12.762Z,30.50
2023-03-18T02:38:43.315Z,24.30
2023-03-18T02:41:21.529Z,21.60
2023-03-18T02:43:51.421Z,24.00
2023-03-18T02:46:51.075Z,19.30
2023-03-18T02:49:20.056Z,21.20
2023-03-18T02:51:49.439Z,21.80
2023-03-18T02:54:21.738Z,17.70
2023-03-18T02:56:51.523Z,17.50
2023-03-18T02:59:25.681Z,22.40
2023-03-18T03:01:54.017Z,20.00
2023-03-18T03:04:23.785Z,21.00
2023-03-18T03:09:26.579Z,15.80
2023-03-18T03:11:54.912Z,15.40
2023-03-18T03:14:23.857Z,13.10
2023-03-18T03:16:54.561Z,13.00
2023-03-18T03:21:52.544Z,11.30
2023-03-18T03:24:20.590Z,10.40
2023-03-18T03:26:49.485Z,12.00
2023-03-18T03:29:17.877Z,10.40
2023-03-18T03:31:46.569Z,11.00
2023-03-18T03:34:15.487Z,9.50
2023-03-18T03:36:44.790Z,10.40
2023-03-18T03:39:13.050Z,9.20
2023-03-18T03:41:41.542Z,9.70
2023-03-18T03:44:09.827Z,9.40
2023-03-18T03:46:39.526Z,10.10
2023-03-18T03:49:07.689Z,9.90
2023-03-18T03:51:37.660Z,9.80
2023-03-18T03:54:05.913Z,9.60
2023-03-18T03:56:36.938Z,9.70
2023-03-18T03:59:05.310Z,9.10
2023-03-18T04:01:57.241Z,9.20
2023-03-18T04:04:25.668Z,9.60
2023-03-18T04:06:53.729Z,9.70
2023-03-18T04:09:23.099Z,9.30
2023-03-18T04:11:52.300Z,9.90
2023-03-18T04:14:20.996Z,9.90
2023-03-18T04:16:49.063Z,10.30
2023-03-18T04:19:17.773Z,10.60
2023-03-18T04:21:46.333Z,10.70
2023-03-18T04:24:14.714Z,10.90
2023-03-18T04:26:43.450Z,15.40
2023-03-18T04:29:11.558Z,16.30
2023-03-18T04:31:40.104Z,21.40
2023-03-18T04:34:09.817Z,26.70
2023-03-18T04:36:38.146Z,28.20
2023-03-18T04:39:07.037Z,41.40
2023-03-18T04:41:39.004Z,28.50
2023-03-18T04:44:07.488Z,30.00
2023-03-18T04:46:41.519Z,18.70
2023-03-18T04:49:10.692Z,26.20
2023-03-18T04:51:39.571Z,14.50
2023-03-18T04:54:12.592Z,11.90
2023-03-18T04:56:43.774Z,15.10
2023-03-18T04:59:14.080Z,13.40
2023-03-18T05:01:43.747Z,16.80
2023-03-18T05:04:13.018Z,12.00
2023-03-18T05:06:47.898Z,9.40
2023-03-18T05:09:16.277Z,8.50
2023-03-18T05:11:45.374Z,15.30
2023-03-18T05:14:22.667Z,12.70
2023-03-18T05:16:51.121Z,13.20
2023-03-18T05:19:20.591Z,15.00
2023-03-18T05:21:55.694Z,13.60
2023-03-18T05:24:24.275Z,11.80
2023-03-18T05:26:52.372Z,10.70
2023-03-18T05:29:22.367Z,9.90
2023-03-18T05:32:11.596Z,10.60
2023-03-18T05:34:46.371Z,10.90
2023-03-18T05:37:15.565Z,12.20
2023-03-18T05:39:47.838Z,10.40
2023-03-18T05:44:57.053Z,9.10
2023-03-18T05:47:26.292Z,8.10
2023-03-18T05:50:08.051Z,7.80
2023-03-18T05:52:38.514Z,8.10
2023-03-18T05:55:16.689Z,7.90
2023-03-18T05:57:46.905Z,7.80
2023-03-18T06:00:15.957Z,7.50
2023-03-18T06:02:45.202Z,8.50
2023-03-18T06:05:14.320Z,7.80
2023-03-18T06:07:43.165Z,9.70
2023-03-18T06:10:13.270Z,10.60
2023-03-18T06:12:42.562Z,8.60
2023-03-18T06:15:12.354Z,6.20
2023-03-18T06:20:12.123Z,7.00
2023-03-18T06:22:40.905Z,6.70
2023-03-18T06:27:41.318Z,5.20
2023-03-18T06:30:25.291Z,5.90
2023-03-18T06:32:57.532Z,6.60
2023-03-18T06:35:32.791Z,6.00
2023-03-18T06:38:03.030Z,5.20
2023-03-18T06:43:01.480Z,5.00
2023-03-18T06:45:37.529Z,4.80
2023-03-18T06:48:08.560Z,4.40
2023-03-18T06:50:39.832Z,4.50
2023-03-18T06:53:12.996Z,4.90
2023-03-18T06:55:41.759Z,4.50
2023-03-18T06:58:10.756Z,4.90
2023-03-18T07:00:49.973Z,4.30
2023-03-18T07:03:23.290Z,5.20
2023-03-18T07:05:54.737Z,4.40
2023-03-18T07:08:24.866Z,5.00
2023-03-18T07:10:56.277Z,5.10
2023-03-18T07:13:27.170Z,5.20
2023-03-18T07:16:00.481Z,4.80
2023-03-18T07:18:29.340Z,4.40
2023-03-18T07:21:04.616Z,3.90
2023-03-18T07:23:34.537Z,5.20
2023-03-18T07:26:02.879Z,4.80
2023-03-18T07:28:33.305Z,5.80
2023-03-18T07:31:01.902Z,5.30
2023-03-18T07:33:34.711Z,5.10
2023-03-18T07:36:03.297Z,5.80
2023-03-18T07:38:35.197Z,6.10
2023-03-18T07:41:03.574Z,6.20
2023-03-18T07:43:31.891Z,5.40
2023-03-18T07:46:06.756Z,5.50
2023-03-18T07:48:34.917Z,6.70
2023-03-18T07:51:03.473Z,7.50
2023-03-18T07:53:33.837Z,6.60
2023-03-18T07:56:02.237Z,5.60
2023-03-18T07:58:31.803Z,14.00
2023-03-18T08:01:00.435Z,17.20
2023-03-18T08:03:28.856Z,18.40
2023-03-18T08:05:57.446Z,20.80
2023-03-18T08:08:26.274Z,14.20
2023-03-18T08:11:00.576Z,8.00
2023-03-18T08:13:30.272Z,7.60
2023-03-18T08:15:58.985Z,8.40
2023-03-18T08:18:29.586Z,6.10
2023-03-18T08:20:59.094Z,5.30
2023-03-18T08:23:27.282Z,6.20
2023-03-18T08:25:55.857Z,5.70
2023-03-18T08:28:26.002Z,4.80
2023-03-18T08:33:27.108Z,5.90
2023-03-18T08:35:56.380Z,6.10
2023-03-18T08:38:25.128Z,6.30
2023-03-18T08:40:53.728Z,6.80
2023-03-18T08:43:25.972Z,12.60
2023-03-18T08:45:54.424Z,8.20
2023-03-18T08:48:23.130Z,7.20
2023-03-18T08:50:52.958Z,8.10
2023-03-18T08:53:22.477Z,10.30
2023-03-18T08:55:50.747Z,7.10
2023-03-18T08:58:20.263Z,7.30
2023-03-18T09:00:50.256Z,7.30
2023-03-18T09:05:50.597Z,12.10
2023-03-18T09:08:18.956Z,10.20
2023-03-18T09:10:47.103Z,13.00
2023-03-18T09:13:15.608Z,14.80
2023-03-18T09:15:48.046Z,10.90
2023-03-18T09:18:18.424Z,6.80
2023-03-18T09:20:46.671Z,6.20
2023-03-18T09:23:21.477Z,7.30
2023-03-18T09:25:51.720Z,7.20
2023-03-18T09:28:19.803Z,5.90
2023-03-18T09:30:48.693Z,6.10
2023-03-18T09:33:16.825Z,5.80
2023-03-18T09:35:48.779Z,6.00
2023-03-18T09:38:20.017Z,5.50
2023-03-18T09:41:18.619Z,6.60
2023-03-18T09:43:59.345Z,7.10
2023-03-18T09:46:27.479Z,7.70
2023-03-18T09:49:11.499Z,6.20
2023-03-18T09:52:14.504Z,6.50
2023-03-18T09:54:54.501Z,5.20
2023-03-18T09:57:36.945Z,5.30
2023-03-18T10:00:28.899Z,5.30
2023-03-18T10:03:06.491Z,5.80
2023-03-18T10:05:49.142Z,5.50
2023-03-18T10:08:21.474Z,6.40
2023-03-18T10:10:49.699Z,5.60
2023-03-18T10:13:25.678Z,6.00
2023-03-18T10:15:56.921Z,5.60
2023-03-18T10:18:31.335Z,6.00
2023-03-18T10:21:07.222Z,6.20
2023-03-18T10:23:49.928Z,5.90
2023-03-18T10:26:54.006Z,4.50
2023-03-18T10:29:51.235Z,5.40
2023-03-18T10:32:49.167Z,6.70
2023-03-18T10:35:40.111Z,8.00
2023-03-18T10:38:23.237Z,13.50
2023-03-18T10:40:51.422Z,5.70
2023-03-18T10:43:25.292Z,5.70
2023-03-18T10:46:02.654Z,4.60
2023-03-18T10:48:36.163Z,4.40
2023-03-18T10:51:33.189Z,6.90
2023-03-18T10:54:11.290Z,5.10
2023-03-18T10:56:41.473Z,4.40
2023-03-18T10:59:16.369Z,6.00
2023-03-18T11:01:47.098Z,4.50
2023-03-18T11:04:17.519Z,4.40
2023-03-18T11:06:53.349Z,4.70
2023-03-18T11:09:23.478Z,4.60
2023-03-18T11:11:56.875Z,4.20
2023-03-18T11:14:29.980Z,4.50
2023-03-18T11:16:58.150Z,5.20
2023-03-18T11:19:33.566Z,6.50
2023-03-18T11:22:06.957Z,10.90
2023-03-18T11:24:44.926Z,8.40
2023-03-18T11:27:16.838Z,9.10
2023-03-18T11:29:50.712Z,5.50
2023-03-18T11:32:29.382Z,4.20
2023-03-18T11:35:01.108Z,4.10
2023-03-18T11:37:37.672Z,4.30
2023-03-18T11:40:28.156Z,5.50
2023-03-18T11:43:00.375Z,5.70
2023-03-18T11:45:35.046Z,6.60
2023-03-18T11:48:10.242Z,7.40
2023-03-18T11:51:10.983Z,9.70
2023-03-18T11:53:48.858Z,8.50
2023-03-18T11:56:41.387Z,6.20
2023-03-18T11:59:29.056Z,5.30
2023-03-18T12:02:12.734Z,5.90
2023-03-18T12:05:10.973Z,5.90
2023-03-18T12:08:01.701Z,5.90
2023-03-18T12:10:30.036Z,7.10
2023-03-18T12:13:28.047Z,8.10
2023-03-18T12:16:22.158Z,6.60
2023-03-18T12:19:09.152Z,5.60
2023-03-18T12:22:09.457Z,5.20
2023-03-18T12:24:54.776Z,5.20
2023-03-18T12:27:43.360Z,5.40
2023-03-18T12:30:11.797Z,5.70
2023-03-18T12:33:06.693Z,5.10
2023-03-18T12:35:53.523Z,5.10
2023-03-18T12:38:40.968Z,5.30
2023-03-18T12:41:36.984Z,5.10
2023-03-18T12:44:14.104Z,4.00
2023-03-18T12:49:44.964Z,3.50
2023-03-18T12:52:40.330Z,3.80
2023-03-18T12:55:21.847Z,3.50
2023-03-18T12:57:56.244Z,3.60
2023-03-18T13:00:32.084Z,3.10
2023-03-18T13:03:23.620Z,3.60
2023-03-18T13:05:53.807Z,3.00
2023-03-18T13:09:01.114Z,3.40
2023-03-18T13:11:29.877Z,4.00
2023-03-18T13:14:05.588Z,6.70
2023-03-18T13:16:34.048Z,7.00
2023-03-18T13:19:04.594Z,5.50
2023-03-18T13:21:36.237Z,6.20
2023-03-18T13:24:32.895Z,4.60
2023-03-18T13:27:22.041Z,4.50
2023-03-18T13:29:52.960Z,3.60
2023-03-18T13:32:35.451Z,3.80
2023-03-18T13:35:16.804Z,3.90
2023-03-18T13:37:57.714Z,2.80
2023-03-18T13:40:52.548Z,3.40
2023-03-18T13:43:22.960Z,3.00
2023-03-18T13:45:52.828Z,4.10
2023-03-18T13:48:24.869Z,3.70
2023-03-18T13:50:53.069Z,3.70
2023-03-18T13:53:32.080Z,4.20
2023-03-18T13:56:03.237Z,3.40
2023-03-18T13:58:45.613Z,4.00
2023-03-18T14:01:34.006Z,3.60
2023-03-18T14:04:20.580Z,3.70
2023-03-18T14:07:15.504Z,4.60
2023-03-18T14:09:57.135Z,5.80
2023-03-18T14:12:37.132Z,4.40
2023-03-18T14:15:10.446Z,3.80
2023-03-18T14:17:38.695Z,4.00
2023-03-18T14:20:22.496Z,3.80
2023-03-18T14:23:17.988Z,4.10
2023-03-18T14:25:49.176Z,4.50
2023-03-18T14:28:19.603Z,4.30
2023-03-18T14:31:14.957Z,4.00
2023-03-18T14:34:03.410Z,4.70
2023-03-18T14:36:55.621Z,4.30
2023-03-18T14:39:38.266Z,4.10
2023-03-18T14:42:44.539Z,4.00
2023-03-18T14:45:36.248Z,3.90
2023-03-18T14:48:21.685Z,3.90
2023-03-18T14:50:51.137Z,3.90
2023-03-18T14:53:34.576Z,3.40
2023-03-18T14:56:02.928Z,3.30
2023-03-18T14:58:30.995Z,4.20
2023-03-18T15:01:11.036Z,4.30
2023-03-18T15:03:44.940Z,4.20
2023-03-18T15:06:23.240Z,4.60
2023-03-18T15:09:09.773Z,5.00
2023-03-18T15:11:44.563Z,3.60
2023-03-18T15:14:23.042Z,3.90
2023-03-18T15:17:04.108Z,3.90
2023-03-18T15:19:34.545Z,3.10
2023-03-18T15:22:06.359Z,3.70
2023-03-18T15:24:34.410Z,4.40
2023-03-18T15:27:11.032Z,4.20
2023-03-18T15:30:00.965Z,4.60
2023-03-18T15:32:49.952Z,4.70
2023-03-18T15:35:26.673Z,4.20
2023-03-18T15:38:12.429Z,4.30
2023-03-18T15:40:50.408Z,5.50
2023-03-18T15:43:32.854Z,6.40
2023-03-18T15:46:05.208Z,11.60
2023-03-18T15:48:38.551Z,9.40
2023-03-18T15:51:22.672Z,12.30
2023-03-18T15:53:56.847Z,19.20
2023-03-18T15:56:30.330Z,7.90
2023-03-18T15:59:19.676Z,7.50
2023-03-18T16:01:47.764Z,7.10
2023-03-18T16:04:17.204Z,7.00
2023-03-18T16:06:45.524Z,7.30
2023-03-18T16:09:18.918Z,7.50
2023-03-18T16:12:27.469Z,7.10
2023-03-18T16:14:56.143Z,6.70
2023-03-18T16:17:24.918Z,7.60
2023-03-18T16:19:57.563Z,7.30
2023-03-18T16:22:26.511Z,6.50
2023-03-18T16:24:54.842Z,6.90
2023-03-18T16:27:29.374Z,7.00
2023-03-18T16:30:01.024Z,7.10
2023-03-18T16:32:31.043Z,8.30
2023-03-18T16:34:59.440Z,7.70
2023-03-18T16:37:27.880Z,6.50
2023-03-18T16:40:00.856Z,7.70
2023-03-18T16:42:30.631Z,10.90
2023-03-18T16:44:58.777Z,15.40
2023-03-18T16:47:27.366Z,19.60
2023-03-18T16:49:59.676Z,11.10
2023-03-18T16:52:28.739Z,13.60
2023-03-18T16:54:58.105Z,10.20
2023-03-18T16:57:32.895Z,9.30
2023-03-18T17:00:06.518Z,8.10
2023-03-18T17:02:38.332Z,8.40
2023-03-18T17:05:08.509Z,7.60
2023-03-18T17:07:37.945Z,6.40
2023-03-18T17:10:09.003Z,10.50
2023-03-18T17:12:37.519Z,10.50
2023-03-18T17:15:09.849Z,8.50
2023-03-18T17:17:39.311Z,8.60
2023-03-18T17:20:16.965Z,8.30
2023-03-18T17:22:46.064Z,14.90
2023-03-18T17:25:14.759Z,12.60
2023-03-18T17:28:03.676Z,10.10
2023-03-18T17:30:36.210Z,10.00
2023-03-18T17:33:18.254Z,9.00
2023-03-18T17:35:46.885Z,17.80
2023-03-18T17:38:15.679Z,12.70
2023-03-18T17:40:44.450Z,11.30
2023-03-18T17:43:22.582Z,11.80
2023-03-18T17:45:55.243Z,15.30
2023-03-18T17:48:28.391Z,11.40
2023-03-18T17:51:17.795Z,13.70
2023-03-18T17:53:56.852Z,10.70
2023-03-18T17:56:25.998Z,13.10
2023-03-18T17:58:56.660Z,13.80
2023-03-18T18:01:29.221Z,11.90
2023-03-18T18:03:58.608Z,11.10
2023-03-18T18:06:31.033Z,13.20
2023-03-18T18:09:00.720Z,85.20
2023-03-18T18:11:39.153Z,21.40
2023-03-18T18:14:24.732Z,15.00
2023-03-18T18:16:56.227Z,12.00
2023-03-18T18:19:25.191Z,12.80
2023-03-18T18:21:53.402Z,12.50
2023-03-18T18:24:31.039Z,13.70
2023-03-18T18:27:00.609Z,16.40
2023-03-18T18:29:34.940Z,16.00
2023-03-18T18:32:04.942Z,13.30
2023-03-18T18:34:33.060Z,13.70
2023-03-18T18:37:01.176Z,19.70
2023-03-18T18:39:29.462Z,15.30
2023-03-18T18:44:38.588Z,16.20
2023-03-18T18:47:19.162Z,19.90
2023-03-18T18:49:52.443Z,18.70
2023-03-18T18:52:22.328Z,21.30
2023-03-18T18:54:50.901Z,20.00
2023-03-18T18:57:27.339Z,15.00
2023-03-18T18:59:55.851Z,22.80
2023-03-18T19:02:32.567Z,24.10
2023-03-18T19:05:02.464Z,21.20
2023-03-18T19:07:34.008Z,18.20
2023-03-18T19:10:05.346Z,14.80
2023-03-18T19:12:33.728Z,14.30
2023-03-18T19:15:10.232Z,14.00
2023-03-18T19:17:41.185Z,15.60
2023-03-18T19:20:26.282Z,16.30
2023-03-18T19:22:54.492Z,14.90
2023-03-18T19:25:25.460Z,14.10
2023-03-18T19:27:54.128Z,14.60
2023-03-18T19:30:23.860Z,18.10
2023-03-18T19:32:52.411Z,18.50
2023-03-18T19:35:20.620Z,20.00
2023-03-18T19:37:48.853Z,15.60
2023-03-18T19:40:29.505Z,17.20
2023-03-18T19:42:58.217Z,18.30
2023-03-18T19:45:29.621Z,30.80
2023-03-18T19:48:03.896Z,19.00
2023-03-18T19:50:32.084Z,21.00
2023-03-18T19:53:10.025Z,23.50
2023-03-18T19:55:38.260Z,30.70
2023-03-18T19:58:07.881Z,23.10
2023-03-18T20:00:36.892Z,31.20
2023-03-18T20:03:11.746Z,29.20
2023-03-18T20:05:45.843Z,36.90
2023-03-18T20:08:15.030Z,41.20
2023-03-18T20:10:43.956Z,36.00
2023-03-18T20:13:20.393Z,38.20
2023-03-18T20:15:50.960Z,32.60
2023-03-18T20:18:20.344Z,28.70
2023-03-18T20:20:55.482Z,32.50
2023-03-18T20:23:28.688Z,31.70
2023-03-18T20:25:57.279Z,32.00
2023-03-18T20:28:26.300Z,32.30
2023-03-18T20:30:56.517Z,27.40
2023-03-18T20:33:27.371Z,32.80
2023-03-18T20:35:55.579Z,35.00
2023-03-18T20:38:30.228Z,34.80
2023-03-18T20:41:00.007Z,30.10
2023-03-18T20:43:28.849Z,32.20
2023-03-18T20:45:58.623Z,37.60
2023-03-18T20:48:28.100Z,35.70
2023-03-18T20:50:56.328Z,39.90
2023-03-18T20:53:25.951Z,41.50
2023-03-18T20:55:54.137Z,40.00
2023-03-18T20:58:25.633Z,40.20
2023-03-18T21:00:54.534Z,38.20
2023-03-18T21:03:30.852Z,37.00
2023-03-18T21:06:09.242Z,36.70
2023-03-18T21:08:53.474Z,40.40
2023-03-18T21:11:29.845Z,47.50
2023-03-18T21:13:58.370Z,43.20
2023-03-18T21:16:31.652Z,45.80
2023-03-18T21:19:00.135Z,40.20
2023-03-18T21:21:38.459Z,55.20
2023-03-18T21:24:26.840Z,53.50
2023-03-18T21:27:04.763Z,39.20
2023-03-18T21:29:34.188Z,34.50
2023-03-18T21:32:05.402Z,53.90
2023-03-18T21:34:36.497Z,52.70
2023-03-18T21:37:14.295Z,43.10
2023-03-18T21:39:43.294Z,44.70
2023-03-18T21:42:30.019Z,55.50
2023-03-18T21:44:58.248Z,61.90
2023-03-18T21:47:26.859Z,30.10
2023-03-18T21:49:56.838Z,33.70
2023-03-18T21:52:35.541Z,33.30
2023-03-18T21:55:04.559Z,33.00
2023-03-18T21:57:33.341Z,28.70
2023-03-18T22:00:02.562Z,29.40
2023-03-18T22:02:38.832Z,31.50
2023-03-18T22:05:21.936Z,29.10
2023-03-18T22:07:54.061Z,30.90
2023-03-18T22:10:23.316Z,32.30
2023-03-18T22:12:51.438Z,29.00
2023-03-18T22:15:25.574Z,28.90
2023-03-18T22:17:55.206Z,33.60
2023-03-18T22:20:23.502Z,37.10
2023-03-18T22:22:56.108Z,41.40
2023-03-18T22:25:37.077Z,22.90
2023-03-18T22:28:05.740Z,18.90
2023-03-18T22:30:34.375Z,18.10
2023-03-18T22:33:02.737Z,18.80
2023-03-18T22:38:01.673Z,13.80
2023-03-18T22:40:31.292Z,13.20
2023-03-18T22:43:00.889Z,12.80
2023-03-18T22:45:30.091Z,26.70
2023-03-18T22:47:59.692Z,15.00
2023-03-18T22:50:29.796Z,13.70
2023-03-18T22:53:02.244Z,19.30
2023-03-18T22:55:35.027Z,11.70
2023-03-18T22:58:04.036Z,19.20
2023-03-18T23:00:42.026Z,19.00
2023-03-18T23:03:19.249Z,23.70
2023-03-18T23:05:48.198Z,24.50
2023-03-18T23:08:16.613Z,29.60
2023-03-18T23:10:45.077Z,24.50
2023-03-18T23:13:38.586Z,35.90
2023-03-18T23:16:09.338Z,34.90
2023-03-18T23:18:38.034Z,35.20
2023-03-18T23:21:14.475Z,40.30
2023-03-18T23:23:43.841Z,36.20
2023-03-18T23:26:11.984Z,44.70
2023-03-18T23:28:44.776Z,41.60
2023-03-18T23:31:14.428Z,47.20
2023-03-18T23:33:42.840Z,54.30
2023-03-18T23:36:11.249Z,58.10
2023-03-18T23:38:45.015Z,50.20
2023-03-18T23:41:13.148Z,58.30
2023-03-18T23:43:50.903Z,54.60
2023-03-18T23:46:19.601Z,50.40
2023-03-18T23:48:48.163Z,43.60
2023-03-18T23:51:16.364Z,42.90
2023-03-18T23:53:46.126Z,43.60
2023-03-18T23:56:17.396Z,44.80
2023-03-18T23:58:46.868Z,49.20
